METAR Data
IDs: Format: Raw Decoded Include TAF

Data at: 0216 UTC 29 May 2022

LICC 290150Z 28005KT CAVOK 17/16 Q1004